.
WxDataArchive / Data Records for 2015-08-09
2015-08-08 August 2015 2015-08-10

Data Records for Sunday, 09 August 2015

Time	Temp	Chill	HIndex	Humid	Dewpt	 Wind 	HiWind	WindDir	Rain 	Barom
-----	----	-----	------	-----	-----	------	------	-------	-----	-----
00:00	73.3	73.3	73.3	78	66.0	0	2	90	0.00	29.918 
00:05	73.2	73.2	73.2	78	65.9	0	1	90	0.00	29.918 
00:10	73.0	73.0	73.0	79	66.1	0	3	90	0.00	29.918 
00:15	72.8	72.8	72.8	79	65.9	0	4	90	0.00	29.926 
00:20	72.7	72.7	72.7	80	66.2	0	1	90	0.00	29.926 
00:25	72.7	72.7	72.7	80	66.2	0	3	90	0.00	29.926 
00:30	72.5	72.5	72.5	81	66.3	0	2	90	0.00	29.926 
00:35	72.3	72.3	72.3	81	66.1	0	2	90	0.00	29.926 
00:40	72.1	72.1	72.1	81	65.9	0	1	90	0.00	29.926 
00:45	72.0	72.0	72.0	82	66.2	0	1	90	0.00	29.928 
00:50	71.8	71.8	71.8	83	66.3	0	2	90	0.00	29.928 
00:55	71.5	71.5	71.5	83	66.1	0	1	90	0.00	29.928 
01:00	71.3	71.3	71.3	84	66.2	0	1	90	0.00	29.934 
01:05	71.3	71.3	71.3	84	66.2	0	1	90	0.00	29.934 
01:10	71.1	71.1	71.1	84	66.0	0	1	90	0.00	29.934 
01:15	71.1	71.1	71.1	84	66.0	0	0	---	0.00	29.931 
01:20	71.1	71.1	71.1	84	66.0	0	1	90	0.00	29.931 
01:25	70.9	70.9	70.9	85	66.2	0	1	90	0.00	29.931 
01:30	70.9	70.9	70.9	85	66.2	0	2	90	0.00	29.928 
01:35	70.8	70.8	70.8	85	66.1	0	0	---	0.00	29.928 
01:40	70.6	70.6	70.6	85	65.9	0	0	---	0.00	29.928 
01:45	70.6	70.6	70.6	85	65.9	0	0	---	0.00	29.930 
01:50	70.4	70.4	70.4	86	66.0	0	0	---	0.00	29.930 
01:55	70.4	70.4	70.4	86	66.0	0	1	90	0.00	29.930 
02:00	70.3	70.3	70.3	86	65.9	0	0	---	0.00	29.933 
02:05	70.3	70.3	70.3	87	66.2	0	1	90	0.00	29.933 
02:10	70.3	70.3	70.3	87	66.2	0	1	90	0.00	29.933 
02:15	70.1	70.1	70.1	87	66.0	0	0	---	0.00	29.937 
02:20	70.1	70.1	70.1	87	66.0	0	1	90	0.00	29.937 
02:25	69.9	69.9	69.9	87	65.8	0	2	90	0.00	29.937 
02:30	69.9	69.9	69.9	87	65.8	0	2	90	0.00	29.937 
02:35	69.8	69.8	69.8	88	66.1	0	1	90	0.00	29.937 
02:40	69.6	69.6	69.6	88	65.9	0	2	90	0.00	29.937 
02:45	69.6	69.6	69.6	88	65.9	0	1	90	0.00	29.939 
02:50	69.4	69.4	69.4	88	65.7	0	1	90	0.00	29.939 
02:55	69.4	69.4	69.4	88	65.7	0	1	90	0.00	29.939 
03:00	69.3	69.3	69.3	88	65.6	0	1	90	0.00	29.942 
03:05	69.1	69.1	69.1	89	65.7	0	1	90	0.00	29.942 
03:10	69.1	69.1	69.1	89	65.7	0	1	90	0.00	29.942 
03:15	68.9	68.9	68.9	89	65.5	0	1	90	0.00	29.940 
03:20	68.8	68.8	68.8	89	65.4	0	1	90	0.00	29.940 
03:25	68.8	68.8	68.8	90	65.7	0	1	90	0.00	29.940 
03:30	68.6	68.6	68.6	90	65.5	0	1	90	0.00	29.939 
03:35	68.4	68.4	68.4	90	65.3	0	0	---	0.00	29.939 
03:40	68.4	68.4	68.4	90	65.3	0	1	90	0.00	29.939 
03:45	68.3	68.3	68.3	90	65.2	0	1	90	0.00	29.936 
03:50	68.1	68.1	68.1	90	65.0	0	0	---	0.00	29.936 
03:55	68.1	68.1	68.1	90	65.0	0	0	---	0.00	29.936 
04:00	67.9	67.9	67.9	91	65.2	0	0	---	0.00	29.934 
04:05	67.8	67.8	67.8	91	65.1	0	0	---	0.00	29.934 
04:10	67.8	67.8	67.8	91	65.1	0	0	---	0.00	29.934 
04:15	67.6	67.6	67.6	91	64.9	0	0	---	0.00	29.931 
04:20	67.6	67.6	67.6	91	64.9	0	0	---	0.00	29.931 
04:25	67.6	67.6	67.6	91	64.9	0	0	---	0.00	29.931 
04:30	67.4	67.4	67.4	91	64.7	0	0	---	0.00	29.931 
04:35	67.4	67.4	67.4	92	65.0	0	0	---	0.00	29.931 
04:40	67.4	67.4	67.4	92	65.0	0	0	---	0.00	29.931 
04:45	67.4	67.4	67.4	92	65.0	0	0	---	0.00	29.931 
04:50	67.3	67.3	67.3	92	64.9	0	0	---	0.00	29.931 
04:55	67.3	67.3	67.3	92	64.9	0	0	---	0.00	29.931 
05:00	67.1	67.1	67.1	92	64.7	0	0	---	0.00	29.928 
05:05	67.1	67.1	67.1	92	64.7	0	1	90	0.00	29.928 
05:10	67.1	67.1	67.1	92	64.7	0	0	---	0.00	29.928 
05:15	67.1	67.1	67.1	92	64.7	0	0	---	0.00	29.924 
05:20	66.9	66.9	66.9	92	64.5	0	0	---	0.00	29.924 
05:25	66.9	66.9	66.9	92	64.5	0	0	---	0.00	29.924 
05:30	66.8	66.8	66.8	92	64.4	0	0	---	0.00	29.930 
05:35	66.8	66.8	66.8	92	64.4	0	0	---	0.00	29.930 
05:40	66.8	66.8	66.8	92	64.4	0	0	---	0.00	29.930 
05:45	66.6	66.6	66.6	92	64.2	0	0	---	0.00	29.932 
05:50	66.6	66.6	66.6	92	64.2	0	0	---	0.00	29.932 
05:55	66.6	66.6	66.6	93	64.5	0	0	---	0.00	29.932 
06:00	66.6	66.6	66.6	93	64.5	0	0	---	0.00	29.937 
06:05	66.6	66.6	66.6	93	64.5	0	0	---	0.00	29.937 
06:10	66.8	66.8	66.8	93	64.7	0	0	---	0.00	29.937 
06:15	66.8	66.8	66.8	93	64.7	0	0	---	0.00	29.947 
06:20	66.8	66.8	66.8	93	64.7	0	0	---	0.00	29.947 
06:25	66.8	66.8	66.8	93	64.7	0	0	---	0.00	29.947 
06:30	66.8	66.8	66.8	93	64.7	0	0	---	0.00	29.949 
06:35	66.8	66.8	66.8	93	64.7	0	0	---	0.00	29.949 
06:40	66.9	66.9	66.9	93	64.8	0	0	---	0.00	29.949 
06:45	66.9	66.9	66.9	93	64.8	0	0	---	0.00	29.950 
06:50	66.8	66.8	66.8	93	64.7	0	0	---	0.00	29.950 
06:55	66.8	66.8	66.8	93	64.7	0	0	---	0.00	29.950 
07:00	66.8	66.8	66.8	93	64.7	0	0	---	0.00	29.951 
07:05	66.9	66.9	66.9	93	64.8	0	0	---	0.00	29.951 
07:10	66.9	66.9	66.9	93	64.8	0	0	---	0.00	29.951 
07:15	66.9	66.9	66.9	93	64.8	0	0	---	0.00	29.949 
07:20	67.1	67.1	67.1	93	65.0	0	0	---	0.00	29.949 
07:25	67.3	67.3	67.3	93	65.2	0	0	---	0.00	29.949 
07:30	67.4	67.4	67.4	93	65.3	0	0	---	0.00	29.946 
07:35	67.4	67.4	67.4	93	65.3	0	0	---	0.00	29.946 
07:40	67.6	67.6	67.6	93	65.5	0	0	---	0.00	29.946 
07:45	67.6	67.6	67.6	93	65.5	0	1	90	0.00	29.939 
07:50	67.8	67.8	67.8	93	65.7	0	1	90	0.00	29.939 
07:55	67.9	67.9	67.9	93	65.8	0	0	---	0.00	29.939 
08:00	68.1	68.1	68.1	93	66.0	0	0	---	0.00	29.940 
08:05	68.4	68.4	68.4	93	66.3	0	0	---	0.00	29.940 
08:10	68.9	68.9	68.9	92	66.5	0	0	---	0.00	29.940 
08:15	69.1	69.1	69.1	92	66.7	0	1	90	0.00	29.937 
08:20	69.4	69.4	69.4	91	66.7	0	0	---	0.00	29.937 
08:25	69.8	69.8	69.8	91	67.0	0	0	---	0.00	29.937 
08:30	70.1	70.1	70.1	90	67.0	0	1	90	0.00	29.939 
08:35	70.4	70.4	70.4	89	67.0	0	0	---	0.00	29.939 
08:40	70.8	70.8	70.8	88	67.1	0	1	90	0.00	29.939 
08:45	70.9	70.9	70.9	88	67.2	0	1	90	0.00	29.941 
08:50	71.3	71.3	71.3	87	67.2	0	1	90	0.00	29.941 
08:55	71.6	71.6	71.6	87	67.5	0	1	90	0.00	29.941 
09:00	71.8	71.8	71.8	86	67.4	0	1	90	0.00	29.938 
09:05	72.1	72.1	72.1	86	67.7	0	0	---	0.00	29.938 
09:10	72.3	72.3	72.3	85	67.5	0	1	90	0.00	29.938 
09:15	72.7	72.7	72.7	85	67.9	0	1	90	0.00	29.927 
09:20	72.8	72.8	72.8	84	67.7	0	1	90	0.00	29.927 
09:25	73.0	73.0	73.0	84	67.9	0	0	---	0.00	29.927 
09:30	73.2	73.2	73.2	84	68.1	0	0	---	0.00	29.928 
09:35	73.5	73.5	73.5	83	68.0	0	0	---	0.00	29.928 
09:40	73.7	73.7	73.7	83	68.2	0	1	90	0.00	29.928 
09:45	73.9	73.9	73.9	82	68.0	0	0	---	0.00	29.929 
09:50	74.0	74.0	74.0	82	68.1	0	1	90	0.00	29.929 
09:55	74.4	74.4	74.4	81	68.2	0	0	---	0.00	29.929 
10:00	74.6	74.6	74.6	81	68.4	0	0	---	0.00	29.931 
10:05	74.9	74.9	74.9	81	68.7	0	1	90	0.00	29.931 
10:10	75.3	75.3	75.9	81	69.1	0	1	90	0.00	29.931 
10:15	75.4	75.4	76.1	80	68.8	0	0	---	0.00	29.938 
10:20	75.8	75.8	76.7	80	69.2	0	1	90	0.00	29.938 
10:25	76.0	76.0	77.0	80	69.4	0	0	---	0.00	29.938 
10:30	76.3	76.3	77.5	80	69.7	0	0	---	0.00	29.933 
10:35	76.3	76.3	77.5	79	69.3	0	1	90	0.00	29.933 
10:40	76.3	76.3	77.5	79	69.3	0	1	90	0.00	29.933 
10:45	76.1	76.1	77.2	79	69.1	0	0	---	0.00	29.934 
10:50	76.1	76.1	77.2	79	69.1	0	1	90	0.00	29.934 
10:55	76.1	76.1	77.1	80	69.5	0	0	---	0.00	29.934 
11:00	76.1	76.1	77.2	79	69.1	0	1	90	0.00	29.944 
11:05	76.1	76.1	77.1	80	69.5	0	0	---	0.00	29.944 
11:10	76.3	76.3	77.4	81	70.0	0	0	---	0.00	29.944 
11:15	76.3	76.3	77.5	80	69.7	0	1	90	0.00	29.949 
11:20	76.3	76.3	77.5	80	69.7	0	0	---	0.00	29.949 
11:25	76.3	76.3	77.5	80	69.7	0	0	---	0.00	29.949 
11:30	76.5	76.5	77.8	80	69.9	0	1	90	0.00	29.947 
11:35	76.5	76.5	77.8	80	69.9	0	0	---	0.00	29.947 
11:40	76.5	76.5	77.8	80	69.9	0	0	---	0.00	29.947 
11:45	76.5	76.5	77.8	80	69.9	0	0	---	0.00	29.946 
11:50	76.5	76.5	77.8	80	69.9	0	1	90	0.00	29.946 
11:55	76.3	76.3	77.5	80	69.7	0	1	90	0.00	29.946 
12:00	76.3	76.3	77.4	81	70.0	0	1	90	0.00	29.957 
12:05	76.1	76.1	77.1	81	69.8	0	1	90	0.00	29.957 
12:10	76.1	76.1	77.1	81	69.8	0	0	---	0.00	29.957 
12:15	76.1	76.1	77.1	81	69.8	0	0	---	0.00	29.964 
12:20	76.1	76.1	77.1	81	69.8	0	0	---	0.00	29.964 
12:25	76.3	76.3	77.4	81	70.0	0	1	90	0.00	29.964 
12:30	76.1	76.1	77.1	81	69.8	0	1	90	0.00	29.966 
12:35	76.0	76.0	76.8	82	70.1	0	1	90	0.00	29.966 
12:40	76.0	76.0	76.8	82	70.1	0	1	90	0.00	29.966 
12:45	76.0	76.0	76.8	82	70.1	0	1	90	0.00	29.965 
12:50	76.0	76.0	76.7	83	70.4	0	0	---	0.00	29.965 
12:55	76.0	76.0	76.7	83	70.4	0	1	90	0.00	29.965 
13:00	76.1	76.1	76.9	83	70.5	0	0	---	0.00	29.963 
13:05	76.1	76.1	77.0	82	70.2	0	0	---	0.00	29.963 
13:10	76.3	76.3	77.3	82	70.4	0	1	90	0.00	29.963 
13:15	76.5	76.5	77.7	82	70.6	0	1	90	0.00	29.956 
13:20	76.7	76.7	78.0	81	70.4	0	0	---	0.00	29.956 
13:25	77.0	77.0	78.5	81	70.7	0	0	---	0.00	29.956 
13:30	77.2	77.2	78.9	81	70.9	0	0	---	0.00	29.949 
13:35	77.2	77.2	78.9	81	70.9	0	1	90	0.00	29.949 
13:40	77.4	77.4	79.2	81	71.1	0	0	---	0.00	29.949 
13:45	77.6	77.6	79.6	81	71.3	0	0	---	0.00	29.948 
13:50	77.4	77.4	79.2	80	70.7	0	0	---	0.00	29.948 
13:55	77.4	77.4	79.2	81	71.1	0	0	---	0.00	29.948 
14:00	77.4	77.4	79.2	80	70.7	0	0	---	0.00	29.950 
14:05	77.2	77.2	78.9	81	70.9	0	1	90	0.00	29.950 
14:10	77.2	77.2	78.9	81	70.9	0	0	---	0.00	29.950 
14:15	77.2	77.2	78.9	82	71.3	0	0	---	0.00	29.946 
14:20	77.2	77.2	78.9	82	71.3	0	1	90	0.00	29.946 
14:25	77.2	77.2	78.9	81	70.9	0	1	90	0.00	29.946 
14:30	77.4	77.4	79.2	81	71.1	0	1	90	0.00	29.940 
14:35	77.4	77.4	79.2	81	71.1	0	0	---	0.00	29.940 
14:40	77.6	77.6	79.6	81	71.3	0	0	---	0.00	29.940 
14:45	77.7	77.7	79.8	81	71.4	0	1	90	0.00	29.936 
14:50	77.7	77.7	79.8	81	71.4	0	1	90	0.00	29.936 
14:55	77.7	77.7	79.8	81	71.4	0	2	90	0.00	29.936 
15:00	77.9	77.9	80.1	81	71.6	0	1	90	0.00	29.925 
15:05	77.9	77.9	80.1	81	71.6	0	0	---	0.00	29.925 
15:10	77.9	77.9	80.1	81	71.6	0	2	90	0.00	29.925 
15:15	77.9	77.9	80.1	81	71.6	0	1	90	0.00	29.922 
15:20	78.1	78.1	80.5	81	71.8	0	1	90	0.00	29.922 
15:25	78.1	78.1	80.5	80	71.4	0	1	90	0.00	29.922 
15:30	78.1	78.1	80.5	80	71.4	0	2	90	0.00	29.919 
15:35	78.1	78.1	80.5	79	71.0	0	1	90	0.00	29.919 
15:40	78.3	78.3	80.8	80	71.6	0	1	90	0.00	29.919 
15:45	78.3	78.3	80.8	78	70.9	0	2	90	0.00	29.916 
15:50	78.3	78.3	80.8	78	70.9	0	0	---	0.00	29.916 
15:55	78.1	78.1	80.4	76	69.9	0	0	---	0.00	29.916 
16:00	78.1	78.1	80.4	77	70.3	0	1	90	0.00	29.912 
16:05	78.3	78.3	80.6	75	69.7	0	2	90	0.00	29.912 
16:10	78.1	78.1	80.3	74	69.1	0	2	90	0.00	29.912 
16:15	78.3	78.3	80.6	73	68.9	0	0	---	0.00	29.903 
16:20	78.5	78.5	80.9	74	69.5	0	1	90	0.00	29.903 
16:25	78.6	78.6	81.0	73	69.2	0	0	---	0.00	29.903 
16:30	78.6	78.6	80.9	71	68.4	0	1	90	0.00	29.899 
16:35	78.8	78.8	81.2	71	68.6	0	0	---	0.00	29.899 
16:40	79.0	79.0	81.4	70	68.4	0	1	90	0.00	29.899 
16:45	79.0	79.0	81.4	70	68.4	0	1	90	0.00	29.899 
16:50	79.2	79.2	81.7	70	68.5	0	1	90	0.00	29.899 
16:55	79.0	79.0	81.5	71	68.8	0	1	90	0.00	29.899 
17:00	79.2	79.2	81.8	71	69.0	0	0	---	0.00	29.897 
17:05	79.2	79.2	81.9	72	69.4	0	1	90	0.00	29.897 
17:10	79.2	79.2	81.8	71	69.0	0	1	90	0.00	29.897 
17:15	79.2	79.2	81.8	71	69.0	0	0	---	0.00	29.903 
17:20	79.2	79.2	81.9	72	69.4	0	0	---	0.00	29.903 
17:25	79.4	79.4	82.2	72	69.6	0	1	90	0.00	29.903 
17:30	79.4	79.4	82.2	72	69.6	0	0	---	0.00	29.903 
17:35	79.6	79.6	82.5	72	69.8	0	1	90	0.00	29.903 
17:40	79.9	79.9	83.0	72	70.0	0	1	90	0.00	29.903 
17:45	80.3	80.3	83.7	72	70.4	0	1	90	0.00	29.905 
17:50	80.5	80.5	84.1	72	70.6	0	2	90	0.00	29.905 
17:55	80.3	80.3	83.7	72	70.4	0	1	90	0.00	29.905 
18:00	80.3	80.3	83.7	72	70.4	0	1	90	0.00	29.902 
18:05	80.3	80.3	83.7	72	70.4	0	2	90	0.00	29.902 
18:10	79.9	79.9	83.0	72	70.0	0	2	90	0.00	29.902 
18:15	79.8	79.8	83.0	73	70.4	0	1	90	0.00	29.900 
18:20	79.6	79.6	82.6	73	70.2	0	1	90	0.00	29.900 
18:25	79.6	79.6	82.6	73	70.2	0	1	90	0.00	29.900 
18:30	79.6	79.6	82.7	74	70.6	0	1	90	0.00	29.900 
18:35	79.4	79.4	82.4	74	70.4	0	0	---	0.00	29.900 
18:40	79.4	79.4	82.5	75	70.8	0	0	---	0.00	29.900 
18:45	79.2	79.2	82.1	75	70.6	0	0	---	0.00	29.901 
18:50	79.2	79.2	82.2	76	71.0	0	1	90	0.00	29.901 
18:55	79.0	79.0	81.8	75	70.4	0	1	90	0.00	29.901 
19:00	79.0	79.0	81.9	76	70.8	0	1	90	0.00	29.902 
19:05	79.0	79.0	81.9	76	70.8	0	0	---	0.00	29.902 
19:10	79.0	79.0	81.9	76	70.8	0	0	---	0.00	29.902 
19:15	79.0	79.0	81.9	76	70.8	0	1	90	0.00	29.903 
19:20	78.8	78.8	81.4	74	69.8	0	1	90	0.00	29.903 
19:25	78.6	78.6	81.1	75	70.0	0	0	---	0.00	29.903 
19:30	78.6	78.6	81.1	74	69.6	0	0	---	0.00	29.900 
19:35	78.8	78.8	81.4	74	69.8	0	0	---	0.00	29.900 
19:40	79.0	79.0	81.6	73	69.6	0	0	---	0.00	29.900 
19:45	79.0	79.0	81.6	73	69.6	0	0	---	0.00	29.899 
19:50	79.0	79.0	81.6	73	69.6	0	1	90	0.00	29.899 
19:55	78.8	78.8	81.3	73	69.4	0	0	---	0.00	29.899 
20:00	78.8	78.8	81.3	73	69.4	0	0	---	0.00	29.900 
20:05	78.8	78.8	81.3	73	69.4	0	0	---	0.00	29.900 
20:10	78.6	78.6	81.0	72	68.8	0	0	---	0.00	29.900 
20:15	78.6	78.6	81.0	73	69.2	0	0	---	0.00	29.898 
20:20	78.5	78.5	80.8	72	68.7	0	0	---	0.00	29.898 
20:25	78.5	78.5	80.8	72	68.7	0	0	---	0.00	29.898 
20:30	78.5	78.5	80.8	72	68.7	0	0	---	0.00	29.905 
20:35	78.3	78.3	80.6	73	68.9	0	0	---	0.00	29.905 
20:40	78.1	78.1	80.3	74	69.1	0	0	---	0.00	29.905 
20:45	77.9	77.9	80.0	74	68.9	0	0	---	0.00	29.908 
20:50	77.7	77.7	79.7	75	69.1	0	0	---	0.00	29.908 
20:55	77.6	77.6	79.6	75	69.0	0	0	---	0.00	29.908 
21:00	77.4	77.4	79.3	75	68.8	0	0	---	0.00	29.911 
21:05	77.2	77.2	79.0	76	69.0	0	0	---	0.00	29.911 
21:10	76.8	76.8	78.3	78	69.4	0	2	90	0.00	29.911 
21:15	76.3	76.3	77.5	79	69.3	0	1	90	0.00	29.910 
21:20	75.8	75.8	76.7	80	69.2	0	1	90	0.00	29.910 
21:25	75.4	75.4	76.1	80	68.8	0	0	---	0.00	29.910 
21:30	75.1	75.1	75.6	81	68.9	0	2	90	0.00	29.911 
21:35	74.7	74.7	74.7	81	68.5	0	2	90	0.00	29.911 
21:40	74.6	74.6	74.6	81	68.4	0	1	90	0.00	29.911 
21:45	74.2	74.2	74.2	81	68.0	0	1	90	0.00	29.915 
21:50	74.2	74.2	74.2	82	68.3	0	1	90	0.00	29.915 
21:55	74.0	74.0	74.0	82	68.1	0	1	90	0.00	29.915 
22:00	73.9	73.9	73.9	82	68.0	0	2	90	0.00	29.919 
22:05	73.7	73.7	73.7	82	67.9	0	1	90	0.00	29.919 
22:10	73.7	73.7	73.7	82	67.9	0	1	90	0.00	29.919 
22:15	73.5	73.5	73.5	82	67.7	0	0	---	0.00	29.926 
22:20	73.3	73.3	73.3	83	67.8	0	1	90	0.00	29.926 
22:25	73.3	73.3	73.3	83	67.8	0	0	---	0.00	29.926 
22:30	73.2	73.2	73.2	83	67.7	0	1	90	0.00	29.925 
22:35	73.0	73.0	73.0	84	67.9	0	0	---	0.00	29.925 
22:40	73.0	73.0	73.0	84	67.9	0	1	90	0.00	29.925 
22:45	72.8	72.8	72.8	84	67.7	0	1	90	0.00	29.926 
22:50	72.8	72.8	72.8	84	67.7	0	0	---	0.00	29.926 
22:55	72.7	72.7	72.7	84	67.6	0	0	---	0.00	29.926 
23:00	72.7	72.7	72.7	84	67.6	0	1	90	0.00	29.929 
23:05	72.7	72.7	72.7	85	67.9	0	0	---	0.00	29.929 
23:10	72.5	72.5	72.5	85	67.7	0	0	---	0.00	29.929 
23:15	72.5	72.5	72.5	85	67.7	0	0	---	0.00	29.928 
23:20	72.3	72.3	72.3	85	67.5	0	0	---	0.00	29.928 
23:25	72.3	72.3	72.3	86	67.9	0	1	90	0.00	29.928 
23:30	72.1	72.1	72.1	87	68.0	0	1	90	0.00	29.921 
23:35	72.1	72.1	72.1	87	68.0	0	0	---	0.00	29.921 
23:40	72.0	72.0	72.0	87	67.9	0	0	---	0.00	29.921 
23:45	71.8	71.8	71.8	88	68.0	0	0	---	0.00	29.915 
23:50	71.8	71.8	71.8	88	68.0	0	0	---	0.00	29.915 
23:55	71.8	71.8	71.8	88	68.0	0	0	---	0.00	29.915 

CoCoRaHS
IN-AL-39
A2 Web Hosting
Creative Commons License
GoDaddy
search engine by freefind advanced

loaded 2018-11-13 01:30:37 • last modified 2010-11-18 10:43:29
Privacy PolicyDisclaimer
• wx.awcolley.com is powered by PmWiki v.2002016 •
• all content (unless otherwise noted) © 2018 A W Colley